Overview Statistics Trail Chart Weather Telemetry Raw packets
 

This is the latest recevied weather packets stored in our database for station/object MB7UKB-10. If no packets are shown the sender has not sent any weather packets the latest 10 day(s).

<< 14 15 16 17 18 >>
Time Temp. Humidity Pressure Rain* Wind** Luminosity Snow
1787940927 18.33° C 87% 1007.1 hPa 0.76 mm - - -
1787939128 18.33° C 84% 1007.2 hPa 1.02 mm - - -
1787937327 20.56° C 70% 1006.8 hPa 0 mm - - -
1787935527 21.67° C 64% 1006.5 hPa 0 mm - - -
1787931928 21.67° C 65% 1006.5 hPa 0 mm - - -
1787930126 22.78° C 58% 1006.4 hPa 0 mm - - -
1787928326 23.89° C 51% 1006.2 hPa 0 mm - - -
1787926527 21.67° C 57% 1006.4 hPa 0 mm - - -
1787924726 21.67° C 58% 1006.3 hPa 0 mm - - -
1787921126 23.89° C 48% 1005.6 hPa 0 mm - - -
1787919327 23.89° C 47% 1005.7 hPa 0 mm - - -
1787915726 22.22° C 53% 1005.8 hPa 0 mm - - -
1787912126 21.67° C 56% 1006.2 hPa 0 mm - - -
1787910326 21.11° C 56% 1005.9 hPa 0 mm - - -
1787908526 20.56° C 62% 1006.1 hPa 0 mm - - -
1787906726 20° C 68% 1005.9 hPa 0 mm - - -
1787904927 18.89° C 74% 1006.4 hPa 0 mm - - -
1787903126 17.78° C 82% 1006.3 hPa 0 mm - - -
1787901326 16.11° C 89% 1006.5 hPa 0 mm - - -
1787899528 15.56° C 91% 1006.4 hPa 0 mm - - -
1787897727 15.56° C 93% 1006.6 hPa 0 mm - - -
1787895927 15° C 94% 1006.6 hPa 0 mm - - -
1787892327 14.44° C 94% 1006.6 hPa 0 mm - - -
1787890527 14.44° C 94% 1006.9 hPa 0 mm - - -
1787886929 15° C 93% 1007 hPa 0 mm - - -

* Rain latest hour (hover to see other rain measurements)
** Current wind speed in m/s (hover to see current wind gust speed)